Time;durP1;ratioP1;P1;durP2;ratioP2;P2;SDS_P1;SDS_P2;PMS_P1;PMS_P2;Temp;Humidity;BMP_temperature;BMP_pressure;BME280_temperature;BME280_humidity;BME280_pressure;Samples;Min_cycle;Max_cycle;Signal;HPM_P1;HPM_P2
2022/09/07 00:02:07;;;;;;;7.00;2.40;;;20.40;1.00;;;;;;4970673;28;20440;-66
2022/09/07 00:04:33;;;;;;;6.63;2.10;;;20.40;1.00;;;;;;4971746;28;20388;-66
2022/09/07 00:06:59;;;;;;;7.10;2.60;;;20.40;1.00;;;;;;4971447;28;20967;-64
2022/09/07 00:09:24;;;;;;;6.93;2.20;;;20.40;1.00;;;;;;4971595;28;20395;-64
2022/09/07 00:11:50;;;;;;;8.73;2.50;;;20.40;1.00;;;;;;4971178;28;20806;-64
2022/09/07 00:14:16;;;;;;;8.60;2.07;;;20.50;1.00;;;;;;4970729;28;20384;-64
2022/09/07 00:16:41;;;;;;;8.90;2.42;;;20.50;1.00;;;;;;4971091;28;20447;-63
2022/09/07 00:19:07;;;;;;;7.60;2.67;;;20.50;1.00;;;;;;4970670;28;20396;-64
2022/09/07 00:21:33;;;;;;;7.30;2.20;;;20.60;1.00;;;;;;4970409;28;20509;-63
2022/09/07 00:23:58;;;;;;;6.80;2.30;;;20.60;1.00;;;;;;4978420;28;20870;-63
2022/09/07 00:26:27;;;;;;;7.25;2.40;;;20.60;1.00;;;;;;4986067;28;20382;-63
2022/09/07 00:28:57;;;;;;;9.38;2.50;;;20.60;1.00;;;;;;4988835;28;20390;-61
2022/09/07 00:31:23;;;;;;;7.50;2.30;;;20.50;1.00;;;;;;4970657;28;20877;-63
2022/09/07 00:33:51;;;;;;;6.63;2.45;;;21.50;1.00;;;;;;4971194;28;20396;-63
2022/09/07 00:36:18;;;;;;;8.68;2.63;;;20.60;1.00;;;;;;4970557;28;20440;-64
2022/09/07 00:38:44;;;;;;;8.05;2.30;;;20.70;1.00;;;;;;4970945;28;20391;-63
2022/09/07 00:41:11;;;;;;;7.45;2.35;;;20.70;1.00;;;;;;4970465;28;20427;-64
2022/09/07 00:43:43;;;;;;;8.30;2.60;;;20.70;1.00;;;;;;4971740;28;20438;-63
2022/09/07 00:46:17;;;;;;;7.00;2.15;;;20.70;1.00;;;;;;4970937;28;20436;-63
2022/09/07 00:48:57;;;;;;;7.90;3.20;;;20.60;1.00;;;;;;4971306;28;20448;-64
2022/09/07 00:51:47;;;;;;;7.55;3.00;;;20.60;99.90;;;;;;4971448;28;20404;-64
2022/09/07 00:54:26;;;;;;;8.73;2.70;;;20.60;45.40;;;;;;4970390;28;20443;-64
2022/09/07 00:56:52;;;;;;;7.10;2.30;;;20.70;99.90;;;;;;4971385;28;20869;-64
2022/09/07 00:59:24;;;;;;;6.40;2.00;;;20.70;1.00;;;;;;4971489;28;20384;-63
2022/09/07 01:01:50;;;;;;;6.30;2.30;;;20.70;1.00;;;;;;4970922;28;20932;-64
2022/09/07 01:04:16;;;;;;;6.78;2.10;;;20.70;46.00;;;;;;4970270;28;20396;-64
2022/09/07 01:06:43;;;;;;;7.20;2.67;;;20.60;99.90;;;;;;4971437;28;20436;-64
2022/09/07 01:09:13;;;;;;;7.30;2.42;;;20.60;99.90;;;;;;4970429;28;20408;-64
2022/09/07 01:11:39;;;;;;;6.80;2.50;;;20.60;99.90;;;;;;4971066;28;20850;-63
2022/09/07 01:14:08;;;;;;;6.60;2.20;;;20.60;99.90;;;;;;4970928;28;20925;-64
2022/09/07 01:16:52;;;;;;;7.28;2.30;;;20.70;99.90;;;;;;4971128;28;20414;-61
2022/09/07 01:19:39;;;;;;;6.75;2.33;;;20.70;1.00;;;;;;4970172;28;20384;-64
2022/09/07 01:22:19;;;;;;;7.55;2.60;;;20.70;1.00;;;;;;4970466;28;20424;-64
2022/09/07 01:25:07;;;;;;;6.60;2.40;;;20.70;1.00;;;;;;4970927;28;20380;-64
2022/09/07 01:28:02;;;;;;;7.20;2.60;;;20.70;99.90;;;;;;4970866;28;20857;-64
2022/09/07 01:30:32;;;;;;;7.53;2.80;;;20.60;99.90;;;;;;4970899;28;20384;-64
2022/09/07 01:33:33;;;;;;;7.23;2.57;;;20.60;1.00;;;;;;4969708;28;20778;-64
2022/09/07 01:36:16;;;;;;;6.50;2.60;;;20.70;1.00;;;;;;4970402;28;20471;-61
2022/09/07 01:38:49;;;;;;;6.50;2.50;;;20.80;99.90;;;;;;4970850;28;20460;-64
2022/09/07 01:41:24;;;;;;;7.13;2.28;;;20.80;99.90;;;;;;4969624;28;20456;-64
2022/09/07 01:44:42;;;;;;;8.85;2.30;;;20.90;99.90;;;;;;4970670;28;20396;-65
2022/09/07 01:47:14;;;;;;;7.80;2.50;;;21.00;99.90;;;;;;4916794;28;20797;-66
2022/09/07 01:49:39;;;;;;;7.10;2.37;;;21.00;45.50;;;;;;4970595;28;20396;-63
2022/09/07 01:52:15;;;;;;;7.68;2.70;;;20.90;99.90;;;;;;4970244;28;20444;-63
2022/09/07 01:54:46;;;;;;;6.50;2.70;;;20.90;1.00;;;;;;4970762;28;20432;-63
2022/09/07 01:57:20;;;;;;;9.88;3.00;;;21.00;99.90;;;;;;4969961;28;20846;-63
2022/09/07 02:00:13;;;;;;;7.10;2.87;;;21.00;99.90;;;;;;4970761;28;20511;-63
2022/09/07 02:03:01;;;;;;;6.57;2.95;;;20.90;1.00;;;;;;4966250;28;20511;-63
2022/09/07 02:05:38;;;;;;;8.30;3.00;;;20.80;99.90;;;;;;4969212;28;20404;-63
2022/09/07 02:08:04;;;;;;;7.60;3.13;;;20.80;1.00;;;;;;4970084;28;20396;-63
2022/09/07 02:10:39;;;;;;;8.47;3.30;;;20.70;1.00;;;;;;4973940;28;20388;-63
2022/09/07 02:13:15;;;;;;;10.60;3.10;;;20.70;1.00;;;;;;4973033;28;20436;-63
2022/09/07 02:15:45;;;;;;;9.90;2.93;;;20.60;99.90;;;;;;4973717;28;20913;-63
2022/09/07 02:18:15;;;;;;;10.00;3.30;;;20.70;99.90;;;;;;4972749;28;20384;-63
2022/09/07 02:20:50;;;;;;;7.53;2.90;;;20.70;1.00;;;;;;4973859;28;20423;-63
2022/09/07 02:23:27;;;;;;;7.93;2.70;;;20.80;1.00;;;;;;4973519;28;20384;-64
2022/09/07 02:26:04;;;;;;;10.30;3.17;;;20.80;1.00;;;;;;4973858;28;20934;-63
2022/09/07 02:28:33;;;;;;;8.10;3.30;;;20.80;99.90;;;;;;4973592;28;20797;-63
2022/09/07 02:30:59;;;;;;;7.32;2.70;;;20.80;99.90;;;;;;4972377;28;20790;-60
2022/09/07 02:33:26;;;;;;;11.70;3.30;;;20.60;1.00;;;;;;4973350;28;20496;-62
2022/09/07 02:35:52;;;;;;;8.95;3.25;;;20.40;99.90;;;;;;4973357;28;20393;-63
2022/09/07 02:38:18;;;;;;;8.70;2.75;;;20.30;99.90;;;;;;4972514;28;20381;-63
2022/09/07 02:40:51;;;;;;;8.32;3.15;;;20.30;99.90;;;;;;4972663;28;20387;-63
2022/09/07 02:43:17;;;;;;;7.50;3.20;;;20.20;1.00;;;;;;4983033;28;20398;-63
2022/09/07 02:46:17;;;;;;;7.00;2.58;;;20.30;1.00;;;;;;4972822;28;20380;-63
2022/09/07 02:48:53;;;;;;;8.88;3.00;;;20.40;1.00;;;;;;4973300;28;20862;-63
2022/09/07 02:51:34;;;;;;;8.20;3.47;;;20.40;1.00;;;;;;4972651;28;20408;-65
2022/09/07 02:54:00;;;;;;;13.10;3.20;;;20.30;1.00;;;;;;4972651;28;20393;-63
2022/09/07 02:56:28;;;;;;;7.95;3.03;;;20.20;1.00;;;;;;4973197;28;20726;-65
2022/09/07 02:59:20;;;;;;;8.45;3.20;;;20.10;1.00;;;;;;4973212;28;20451;-63
2022/09/07 03:01:57;;;;;;;7.05;2.72;;;20.10;1.00;;;;;;4973562;28;20475;-63
2022/09/07 03:04:25;;;;;;;8.00;3.40;;;20.10;1.00;;;;;;4972744;28;20392;-63
2022/09/07 03:07:10;;;;;;;9.00;3.38;;;20.00;1.00;;;;;;4972467;28;20475;-63
2022/09/07 03:09:40;;;;;;;9.50;3.38;;;20.00;1.00;;;;;;4972733;28;20403;-63
2022/09/07 03:12:07;;;;;;;8.48;3.60;;;20.00;1.00;;;;;;4972332;28;20471;-63
2022/09/07 03:14:33;;;;;;;6.80;3.20;;;20.00;1.00;;;;;;4972970;28;20392;-63
2022/09/07 03:17:00;;;;;;;7.40;3.10;;;20.00;1.00;;;;;;4972195;28;20391;-61
2022/09/07 03:19:26;;;;;;;8.55;3.20;;;20.10;1.00;;;;;;4972287;28;20479;-63
2022/09/07 03:21:52;;;;;;;7.90;3.20;;;20.10;1.00;;;;;;4972481;28;20427;-63
2022/09/07 03:24:18;;;;;;;8.20;2.97;;;20.10;1.00;;;;;;4971505;28;20450;-63
2022/09/07 03:26:47;;;;;;;8.50;3.70;;;20.20;1.00;;;;;;4972297;28;20774;-63
2022/09/07 03:29:13;;;;;;;9.00;3.65;;;20.20;1.00;;;;;;4971043;28;20385;-63
2022/09/07 03:31:39;;;;;;;8.77;3.50;;;20.20;1.00;;;;;;4972052;28;20431;-63
2022/09/07 03:34:05;;;;;;;10.13;3.05;;;20.20;1.00;;;;;;4971737;28;20384;-63
2022/09/07 03:36:32;;;;;;;11.73;3.38;;;20.10;1.00;;;;;;4972047;28;20447;-63
2022/09/07 03:38:58;;;;;;;7.88;3.30;;;20.10;1.00;;;;;;4971488;28;20468;-61
2022/09/07 03:41:24;;;;;;;9.10;3.30;;;20.10;1.00;;;;;;4975276;28;20991;-63
2022/09/07 03:43:50;;;;;;;10.25;2.95;;;19.80;1.00;;;;;;4981581;28;20878;-63
2022/09/07 03:46:18;;;;;;;8.77;3.30;;;19.70;1.00;;;;;;4982538;28;20384;-63
2022/09/07 03:48:45;;;;;;;8.00;3.00;;;19.60;1.00;;;;;;4980337;28;20391;-63
2022/09/07 03:51:11;;;;;;;9.52;3.30;;;19.50;1.00;;;;;;4971376;28;20846;-62
2022/09/07 03:53:39;;;;;;;9.15;3.60;;;19.50;1.00;;;;;;4972294;28;20389;-63
2022/09/07 03:56:06;;;;;;;9.70;4.10;;;19.30;1.00;;;;;;4971562;28;20396;-66
2022/09/07 03:58:33;;;;;;;11.00;4.13;;;19.30;1.00;;;;;;4971811;28;20420;-65
2022/09/07 04:01:03;;;;;;;9.87;4.27;;;19.20;1.00;;;;;;4971129;28;20395;-63
2022/09/07 04:03:29;;;;;;;11.07;3.90;;;19.30;1.00;;;;;;4972059;28;20449;-66
2022/09/07 04:05:57;;;;;;;7.82;3.63;;;19.20;1.00;;;;;;4971488;28;20411;-66
2022/09/07 04:08:25;;;;;;;9.40;3.75;;;19.20;1.00;;;;;;4971057;28;20586;-66
2022/09/07 04:10:51;;;;;;;7.90;3.33;;;19.20;1.00;;;;;;4971986;28;20483;-63
2022/09/07 04:13:16;;;;;;;8.73;3.75;;;19.20;1.00;;;;;;4971377;28;20980;-63
2022/09/07 04:15:42;;;;;;;8.70;3.70;;;19.20;1.00;;;;;;4972146;28;20381;-63
2022/09/07 04:18:08;;;;;;;9.43;3.00;;;19.20;1.00;;;;;;4970694;28;20407;-65
2022/09/07 04:20:33;;;;;;;7.80;3.60;;;19.10;1.00;;;;;;4971703;28;20411;-63
2022/09/07 04:22:59;;;;;;;8.90;3.50;;;19.10;1.00;;;;;;4988088;28;20453;-61
2022/09/07 04:25:25;;;;;;;11.57;3.60;;;19.10;1.00;;;;;;4988475;28;20414;-63
2022/09/07 04:27:50;;;;;;;8.73;4.07;;;19.10;1.00;;;;;;4988801;28;20383;-64
2022/09/07 04:30:16;;;;;;;10.87;3.53;;;19.10;1.00;;;;;;4976376;28;20416;-63
2022/09/07 04:32:42;;;;;;;7.53;3.50;;;19.10;1.00;;;;;;4970018;28;20438;-63
2022/09/07 04:35:08;;;;;;;9.17;3.87;;;19.00;1.00;;;;;;4970429;28;20407;-66
2022/09/07 04:37:34;;;;;;;10.63;4.32;;;19.10;1.00;;;;;;4978591;28;20481;-66
2022/09/07 04:39:59;;;;;;;10.23;3.88;;;19.10;1.00;;;;;;4989967;28;20473;-66
2022/09/07 04:42:25;;;;;;;14.32;5.28;;;19.00;1.00;;;;;;4989835;28;20410;-66
2022/09/07 04:44:50;;;;;;;10.45;3.97;;;19.00;3.20;;;;;;4990414;28;20848;-63
2022/09/07 04:47:16;;;;;;;8.55;3.60;;;18.90;2.90;;;;;;4989567;28;20438;-63
2022/09/07 04:49:42;;;;;;;8.50;4.00;;;18.90;1.00;;;;;;4990334;28;20440;-62
2022/09/07 04:52:08;;;;;;;13.15;4.35;;;18.90;9.60;;;;;;4971046;28;20396;-63
2022/09/07 04:54:34;;;;;;;10.43;4.20;;;18.90;1.00;;;;;;4970678;28;21169;-63
2022/09/07 04:56:59;;;;;;;10.00;4.70;;;19.00;1.00;;;;;;4976295;28;20406;-60
2022/09/07 04:59:25;;;;;;;11.15;4.22;;;18.90;1.00;;;;;;4964301;28;20410;-63
2022/09/07 05:01:50;;;;;;;12.70;4.53;;;18.80;1.00;;;;;;4989808;28;20971;-64
2022/09/07 05:04:16;;;;;;;10.20;3.90;;;18.70;12.40;;;;;;4989722;28;20390;-63
2022/09/07 05:06:42;;;;;;;8.80;4.03;;;18.70;9.80;;;;;;4990163;28;20383;-63
2022/09/07 05:09:09;;;;;;;9.80;4.10;;;18.70;34.30;;;;;;4989425;28;20474;-64
2022/09/07 05:11:34;;;;;;;13.27;5.05;;;18.70;23.20;;;;;;4990431;28;20860;-66
2022/09/07 05:14:01;;;;;;;8.70;4.13;;;18.70;1.00;;;;;;4989651;28;20469;-61
2022/09/07 05:16:28;;;;;;;11.40;4.27;;;18.70;19.90;;;;;;4982080;28;20414;-63
2022/09/07 05:18:56;;;;;;;10.90;5.07;;;18.80;4.10;;;;;;4990243;28;20383;-65
2022/09/07 05:21:25;;;;;;;9.27;4.20;;;18.80;9.50;;;;;;4989418;28;20899;-66
2022/09/07 05:23:53;;;;;;;8.48;4.00;;;18.90;5.40;;;;;;4989661;28;20387;-66
2022/09/07 05:26:21;;;;;;;9.45;3.75;;;19.00;1.00;;;;;;4989190;28;20378;-63
2022/09/07 05:28:47;;;;;;;9.98;4.15;;;19.10;1.00;;;;;;4989609;28;20397;-63
2022/09/07 05:31:16;;;;;;;9.95;4.75;;;19.30;1.00;;;;;;4989069;28;20737;-63
2022/09/07 05:33:46;;;;;;;14.00;4.20;;;19.30;1.00;;;;;;4990070;28;20410;-63
2022/09/07 05:36:12;;;;;;;10.70;4.37;;;19.40;1.00;;;;;;4989265;28;20374;-63
2022/09/07 05:38:37;;;;;;;11.30;4.50;;;19.50;1.00;;;;;;4989573;28;20513;-65
2022/09/07 05:41:13;;;;;;;11.90;4.13;;;19.60;1.00;;;;;;4988761;28;20786;-62
2022/09/07 05:43:40;;;;;;;10.93;4.50;;;19.70;1.00;;;;;;4992452;28;20386;-63
2022/09/07 05:46:06;;;;;;;11.10;5.00;;;19.90;1.00;;;;;;4992736;28;20402;-63
2022/09/07 05:48:32;;;;;;;10.03;4.50;;;20.00;1.00;;;;;;4993336;28;20390;-63
2022/09/07 05:50:58;;;;;;;10.05;4.75;;;20.10;1.00;;;;;;4993379;28;20959;-61
2022/09/07 05:53:23;;;;;;;11.52;5.00;;;20.30;1.00;;;;;;4992950;28;20931;-64
2022/09/07 05:55:49;;;;;;;11.77;5.03;;;20.40;1.00;;;;;;4993401;28;20422;-64
2022/09/07 05:58:16;;;;;;;10.67;5.60;;;20.70;1.00;;;;;;4992592;28;20383;-63
2022/09/07 06:00:42;;;;;;;12.70;4.70;;;20.90;1.00;;;;;;4983837;28;20408;-63
2022/09/07 06:03:08;;;;;;;10.30;4.57;;;21.20;1.00;;;;;;4988763;28;20422;-62
2022/09/07 06:05:34;;;;;;;10.68;5.00;;;;;;;;;;4998372;28;20396;-62
2022/09/07 06:07:59;;;;;;;9.23;3.95;;;22.80;1.00;;;;;;4996040;28;20389;-62
2022/09/07 06:10:25;;;;;;;8.17;3.70;;;24.50;1.00;;;;;;4998676;28;20888;-64
2022/09/07 06:12:52;;;;;;;11.80;4.07;;;26.00;99.90;;;;;;4975566;28;20473;-64
2022/09/07 06:15:17;;;;;;;10.35;3.90;;;27.20;1.00;;;;;;5010412;28;20395;-64
2022/09/07 06:17:43;;;;;;;8.33;3.73;;;28.30;1.00;;;;;;5012596;28;20817;-64
2022/09/07 06:20:09;;;;;;;10.00;3.60;;;29.00;1.00;;;;;;5011466;28;20381;-64
2022/09/07 06:22:35;;;;;;;15.00;3.67;;;29.10;99.90;;;;;;5004255;28;20418;-64
2022/09/07 06:25:01;;;;;;;7.68;3.53;;;28.50;99.90;;;;;;4992182;28;20466;-62
2022/09/07 06:27:27;;;;;;;10.23;3.40;;;28.80;99.90;;;;;;4993054;28;20473;-64
2022/09/07 06:29:53;;;;;;;8.95;3.90;;;29.10;99.90;;;;;;4992733;28;20387;-64
2022/09/07 06:32:19;;;;;;;9.95;3.50;;;28.80;99.90;;;;;;4991216;28;20419;-63
2022/09/07 06:34:44;;;;;;;8.32;3.50;;;28.20;99.90;;;;;;4992587;28;20391;-64
2022/09/07 06:37:10;;;;;;;8.40;3.03;;;27.30;99.90;;;;;;4991394;28;20421;-64
2022/09/07 06:39:36;;;;;;;11.43;3.40;;;27.80;99.90;;;;;;5000302;28;20385;-64
2022/09/07 06:42:03;;;;;;;7.45;2.72;;;28.30;99.90;;;;;;5011578;28;20491;-62
2022/09/07 06:44:29;;;;;;;8.23;3.40;;;28.70;99.90;;;;;;5011822;28;20472;-64
2022/09/07 06:46:56;;;;;;;10.17;3.57;;;28.70;99.90;;;;;;5011258;28;20482;-64
2022/09/07 06:49:23;;;;;;;8.70;3.40;;;28.20;99.90;;;;;;5011431;28;20389;-64
2022/09/07 06:51:49;;;;;;;9.30;3.10;;;28.10;99.90;;;;;;5011548;28;20389;-64
2022/09/07 06:54:15;;;;;;;10.10;3.10;;;28.10;99.90;;;;;;5010238;28;20479;-64
2022/09/07 06:56:40;;;;;;;8.07;2.90;;;27.80;99.90;;;;;;5012312;28;20703;-64
2022/09/07 06:59:06;;;;;;;7.70;2.80;;;28.90;99.90;;;;;;5011139;28;20832;-64
2022/09/07 07:01:32;;;;;;;8.30;2.70;;;29.60;99.90;;;;;;5011446;28;20452;-64
2022/09/07 07:03:59;;;;;;;8.52;3.03;;;29.50;99.90;;;;;;5011850;28;20420;-64
2022/09/07 07:06:35;;;;;;;8.57;2.92;;;29.40;99.90;;;;;;5011093;28;20892;-64
2022/09/07 07:09:03;;;;;;;8.55;2.67;;;29.10;99.90;;;;;;5011159;28;20392;-62
2022/09/07 07:11:30;;;;;;;10.60;3.40;;;28.70;99.90;;;;;;5011507;28;20883;-64
2022/09/07 07:13:56;;;;;;;11.70;3.78;;;28.80;99.90;;;;;;5002472;28;20382;-64
2022/09/07 07:16:22;;;;;;;10.43;3.53;;;29.50;99.90;;;;;;4991064;28;20399;-64
2022/09/07 07:18:51;;;;;;;8.52;2.70;;;30.10;99.90;;;;;;4992099;28;20448;-64
2022/09/07 07:21:17;;;;;;;8.60;3.67;;;30.60;99.90;;;;;;4990822;28;20421;-64
2022/09/07 07:23:43;;;;;;;8.15;3.80;;;31.00;99.90;;;;;;4991471;28;20396;-64
2022/09/07 07:26:13;;;;;;;12.30;4.70;;;32.40;99.90;;;;;;4990606;28;20397;-64
2022/09/07 07:28:47;;;;;;;10.07;4.70;;;32.30;99.90;;;;;;4979360;28;20399;-65
2022/09/07 07:31:15;;;;;;;8.18;5.93;;;33.40;99.90;;;;;;4980280;28;20883;-65
2022/09/07 07:33:41;;;;;;;7.20;2.35;;;34.20;99.90;;;;;;4981934;28;20419;-65
2022/09/07 07:36:24;;;;;;;11.13;5.35;;;33.70;99.90;;;;;;4981512;28;20927;-63
2022/09/07 07:38:52;;;;;;;9.25;5.18;;;32.90;99.90;;;;;;4982520;28;20444;-64
2022/09/07 07:41:19;;;;;;;9.10;4.55;;;32.80;99.90;;;;;;4981298;28;20427;-64
2022/09/07 07:43:45;;;;;;;10.48;4.47;;;33.10;99.90;;;;;;4981948;28;20473;-64
2022/09/07 07:46:13;;;;;;;8.10;5.60;;;33.30;99.90;;;;;;4979598;28;20483;-64
2022/09/07 07:48:39;;;;;;;10.97;5.40;;;33.80;99.90;;;;;;4980905;28;20383;-65
2022/09/07 07:51:08;;;;;;;8.07;2.45;;;34.00;99.90;;;;;;4981543;28;20876;-64
2022/09/07 07:53:37;;;;;;;8.38;3.00;;;33.80;99.90;;;;;;4980949;28;20384;-65
2022/09/07 07:56:03;;;;;;;9.10;3.15;;;34.10;99.90;;;;;;4979078;28;20386;-64
2022/09/07 07:58:30;;;;;;;8.80;2.90;;;34.00;99.90;;;;;;4975008;28;20380;-65
2022/09/07 08:01:09;;;;;;;10.07;3.40;;;34.60;99.90;;;;;;4977356;28;20396;-65
2022/09/07 08:03:37;;;;;;;10.30;2.75;;;34.50;99.90;;;;;;4981834;28;20489;-65
2022/09/07 08:06:12;;;;;;;9.90;4.90;;;33.80;99.90;;;;;;4981221;28;20399;-63
2022/09/07 08:08:38;;;;;;;9.38;5.72;;;32.80;99.90;;;;;;4979954;28;20745;-65
2022/09/07 08:11:16;;;;;;;8.93;5.00;;;32.70;99.90;;;;;;4981000;28;20379;-65
2022/09/07 08:13:43;;;;;;;10.57;5.28;;;32.30;99.90;;;;;;4983668;28;20872;-65
2022/09/07 08:16:09;;;;;;;9.73;4.33;;;33.00;99.90;;;;;;4980992;28;20848;-65
2022/09/07 08:18:36;;;;;;;9.30;4.60;;;33.00;99.90;;;;;;4983051;28;20401;-65
2022/09/07 08:21:09;;;;;;;7.90;4.20;;;32.90;99.90;;;;;;4989851;28;20744;-64
2022/09/07 08:23:35;;;;;;;9.60;4.40;;;33.80;99.90;;;;;;4990469;28;20457;-65
2022/09/07 08:26:00;;;;;;;8.52;2.55;;;34.70;99.90;;;;;;4990556;28;20470;-64
2022/09/07 08:28:28;;;;;;;9.43;2.80;;;34.90;99.90;;;;;;4985686;28;20396;-65
2022/09/07 08:30:55;;;;;;;9.20;2.40;;;34.50;99.90;;;;;;4982555;28;20414;-64
2022/09/07 08:33:21;;;;;;;7.60;3.67;;;35.00;99.90;;;;;;4990321;28;21018;-65
2022/09/07 08:36:01;;;;;;;10.00;4.87;;;35.80;99.90;;;;;;4990507;28;20907;-65
2022/09/07 08:38:31;;;;;;;8.43;3.00;;;35.80;99.90;;;;;;4989630;28;20864;-65
2022/09/07 08:40:58;;;;;;;10.30;4.25;;;36.90;99.90;;;;;;4972891;28;20494;-66
2022/09/07 08:43:32;;;;;;;11.63;3.30;;;38.20;99.90;;;;;;4989258;28;20525;-66
2022/09/07 08:46:33;;;;;;;8.87;2.90;;;37.70;99.90;;;;;;4990528;28;20382;-66
2022/09/07 08:49:02;;;;;;;8.60;4.40;;;37.80;99.90;;;;;;4989838;28;20744;-67
2022/09/07 08:51:51;;;;;;;8.57;2.83;;;;;;;;;;4989646;28;20386;-67
2022/09/07 08:54:17;;;;;;;10.63;3.50;;;;;;;;;;4976849;28;20390;-65
2022/09/07 08:56:45;;;;;;;7.47;2.78;;;;;;;;;;4990157;28;20490;-65
2022/09/07 08:59:38;;;;;;;12.32;4.18;;;;;;;;;;4989233;28;20390;-66
2022/09/07 09:02:08;;;;;;;10.90;2.85;;;;;;;;;;4985911;28;20923;-64
2022/09/07 09:04:34;;;;;;;8.33;2.60;;;;;;;;;;4990316;28;20474;-64
2022/09/07 09:07:06;;;;;;;9.07;2.70;;;;;;;;;;4989815;28;20418;-64
2022/09/07 09:09:40;;;;;;;8.30;5.85;;;;;;;;;;4989912;28;20429;-65
2022/09/07 09:12:14;;;;;;;11.32;4.65;;;36.30;50.20;;;;;;4989098;28;20876;-65
2022/09/07 09:15:07;;;;;;;8.40;4.55;;;36.00;55.60;;;;;;5005392;28;20381;-66
2022/09/07 09:17:39;;;;;;;8.35;2.75;;;35.80;45.50;;;;;;5011035;28;20381;-66
2022/09/07 09:20:36;;;;;;;9.63;2.75;;;35.50;18.40;;;;;;5013121;28;20385;-63
2022/09/07 09:23:13;;;;;;;8.30;3.00;;;34.70;1.00;;;;;;4998190;28;20416;-63
2022/09/07 09:25:51;;;;;;;7.30;3.50;;;34.20;1.00;;;;;;5013454;28;21023;-64
2022/09/07 09:28:17;;;;;;;11.53;2.70;;;34.80;18.80;;;;;;5007824;28;20382;-66
2022/09/07 09:30:42;;;;;;;8.83;2.60;;;35.80;56.70;;;;;;4993818;28;20761;-63
2022/09/07 09:33:25;;;;;;;9.38;2.80;;;36.50;69.20;;;;;;4991119;28;20430;-64
2022/09/07 09:35:53;;;;;;;8.38;3.28;;;37.40;43.60;;;;;;4987685;28;20497;-65
2022/09/07 09:38:31;;;;;;;8.57;2.83;;;36.40;13.20;;;;;;4986042;28;20422;-65
2022/09/07 09:41:09;;;;;;;7.57;2.72;;;36.10;37.20;;;;;;4982196;28;20577;-65
2022/09/07 09:43:50;;;;;;;9.98;3.40;;;36.20;24.00;;;;;;4982424;28;20423;-66
2022/09/07 09:46:27;;;;;;;10.27;3.22;;;35.70;38.90;;;;;;4981686;28;20385;-65
2022/09/07 09:49:00;;;;;;;9.07;2.63;;;35.50;50.00;;;;;;4982422;28;20395;-65
2022/09/07 09:51:32;;;;;;;7.13;2.35;;;35.80;58.10;;;;;;4983967;28;20453;-65
2022/09/07 09:54:21;;;;;;;12.60;3.43;;;36.20;51.40;;;;;;4984340;28;20382;-65
2022/09/07 09:56:48;;;;;;;9.75;2.50;;;36.60;68.00;;;;;;4984359;28;20371;-65
2022/09/07 09:59:16;;;;;;;8.95;2.85;;;36.60;36.90;;;;;;4983468;28;20413;-65
2022/09/07 10:01:46;;;;;;;6.80;2.70;;;36.60;42.70;;;;;;4981240;28;20814;-64
2022/09/07 10:04:32;;;;;;;11.20;2.70;;;36.70;33.00;;;;;;4980618;28;20816;-65
2022/09/07 10:07:19;;;;;;;8.75;2.88;;;36.80;53.90;;;;;;4984375;28;20432;-65
2022/09/07 10:09:53;;;;;;;9.40;2.90;;;37.30;28.60;;;;;;4983660;28;20402;-65
2022/09/07 10:12:29;;;;;;;8.90;3.05;;;36.90;23.80;;;;;;4983365;28;20407;-65
2022/09/07 10:14:58;;;;;;;11.27;3.20;;;37.00;28.80;;;;;;4984915;28;20957;-64
2022/09/07 10:17:28;;;;;;;8.38;3.00;;;36.60;13.90;;;;;;4982316;28;20390;-65
2022/09/07 10:20:20;;;;;;;9.10;3.03;;;36.50;14.20;;;;;;4983760;28;20394;-65
2022/09/07 10:22:52;;;;;;;7.80;3.00;;;35.70;34.60;;;;;;4974949;28;20420;-65
2022/09/07 10:25:27;;;;;;;9.60;3.10;;;;;;;;;;4981930;28;20763;-62
2022/09/07 10:28:09;;;;;;;8.10;2.55;;;;;;;;;;4973325;28;20420;-63
2022/09/07 10:30:55;;;;;;;7.97;2.80;;;;;;;;;;4977832;28;20410;-66
2022/09/07 10:33:37;;;;;;;10.68;5.43;;;;;;;;;;4977840;28;20422;-65
2022/09/07 10:36:20;;;;;;;8.57;5.30;;;;;;;;;;4973327;28;20898;-64
2022/09/07 10:39:06;;;;;;;10.45;5.47;;;;;;;;;;4982834;28;20746;-65
2022/09/07 10:41:48;;;;;;;11.57;5.03;;;;;;;;;;4987423;28;20410;-65
2022/09/07 10:44:22;;;;;;;8.20;4.68;;;;;;;;;;4972364;28;20385;-64
2022/09/07 10:46:52;;;;;;;10.27;4.55;;;;;;;;;;4973266;28;20376;-64
2022/09/07 10:49:18;;;;;;;7.32;4.50;;;;;;;;;;4971965;28;20770;-63
2022/09/07 10:51:44;;;;;;;9.75;4.55;;;;;;;;;;4972741;28;20388;-63
2022/09/07 10:54:22;;;;;;;10.20;5.70;;;;;;;;;;4971847;28;20871;-63
2022/09/07 10:56:48;;;;;;;8.82;5.60;;;;;;;;;;4972184;28;20858;-64
2022/09/07 10:59:33;;;;;;;11.73;5.88;;;;;;;;;;4978744;28;20395;-63
2022/09/07 11:02:01;;;;;;;11.80;4.40;;;;;;;;;;4980028;28;20455;-64
2022/09/07 11:04:27;;;;;;;9.52;5.53;;;;;;;;;;4979023;28;20504;-64
2022/09/07 11:06:57;;;;;;;9.52;4.25;;;;;;;;;;4982584;28;20475;-64
2022/09/07 11:09:41;;;;;;;9.18;4.22;;;;;;;;;;4978624;28;21098;-63
2022/09/07 11:12:16;;;;;;;10.35;5.35;;;;;;;;;;4982200;28;20463;-64
2022/09/07 11:14:45;;;;;;;12.15;4.43;;;;;;;;;;4984663;28;20403;-64
2022/09/07 11:17:20;;;;;;;8.60;5.00;;;;;;;;;;4982660;28;20401;-64
2022/09/07 11:19:56;;;;;;;7.13;4.30;;;;;;;;;;4965415;28;20473;-64
2022/09/07 11:22:22;;;;;;;8.25;5.47;;;;;;;;;;4981342;28;20411;-64
2022/09/07 11:25:05;;;;;;;9.90;4.55;;;;;;;;;;4972064;28;20482;-64
2022/09/07 11:27:41;;;;;;;11.48;4.85;;;32.90;99.90;;;;;;4971816;28;20380;-64
2022/09/07 11:30:19;;;;;;;10.20;5.38;;;32.30;1.00;;;;;;4983696;28;20398;-63
2022/09/07 11:32:50;;;;;;;11.10;5.80;;;32.10;99.90;;;;;;4980786;28;20427;-63
2022/09/07 11:35:38;;;;;;;7.40;4.53;;;32.00;99.90;;;;;;4979894;28;20409;-63
2022/09/07 11:38:12;;;;;;;8.98;4.50;;;32.50;99.90;;;;;;4977333;28;20416;-64
2022/09/07 11:41:08;;;;;;;9.10;4.20;;;32.70;99.90;;;;;;4978352;28;20376;-63
2022/09/07 11:43:42;;;;;;;10.23;4.55;;;33.20;99.90;;;;;;4984247;28;20419;-64
2022/09/07 11:46:31;;;;;;;7.00;5.53;;;33.00;99.90;;;;;;4982577;28;20417;-64
2022/09/07 11:48:57;;;;;;;10.77;5.10;;;32.90;99.90;;;;;;4991042;28;20864;-64
2022/09/07 11:51:38;;;;;;;8.75;4.78;;;32.70;99.90;;;;;;4988089;28;20465;-64
2022/09/07 11:54:40;;;;;;;7.95;4.88;;;32.40;99.90;;;;;;4980591;28;20414;-64
2022/09/07 11:57:14;;;;;;;8.75;5.07;;;32.00;99.90;;;;;;4957782;28;20452;-63
2022/09/07 11:59:52;;;;;;;8.00;5.60;;;31.60;99.90;;;;;;4976852;28;20453;-64
2022/09/07 12:02:25;;;;;;;7.70;4.90;;;31.30;99.90;;;;;;4980497;28;20485;-63
2022/09/07 12:05:03;;;;;;;9.38;5.97;;;31.10;99.90;;;;;;4981355;28;20776;-64
2022/09/07 12:07:55;;;;;;;8.90;5.13;;;31.30;99.90;;;;;;4980317;28;20440;-64
2022/09/07 12:10:50;;;;;;;7.93;5.50;;;31.20;99.90;;;;;;4973912;28;20430;-64
2022/09/07 12:13:43;;;;;;;8.20;5.40;;;31.20;99.90;;;;;;4982500;28;20401;-63
2022/09/07 12:16:27;;;;;;;9.00;5.60;;;31.40;99.90;;;;;;4984544;28;20452;-64
2022/09/07 12:19:14;;;;;;;7.70;5.75;;;31.30;99.90;;;;;;4990901;28;20390;-64
2022/09/07 12:21:43;;;;;;;6.68;5.30;;;31.40;99.90;;;;;;4988462;28;20418;-64
2022/09/07 12:24:34;;;;;;;8.52;4.90;;;31.50;99.90;;;;;;4990031;28;21057;-64
2022/09/07 12:27:01;;;;;;;9.57;5.53;;;31.50;99.90;;;;;;4990144;28;20390;-65
2022/09/07 12:29:29;;;;;;;7.63;4.70;;;31.40;99.90;;;;;;4989045;28;20425;-64
2022/09/07 12:31:57;;;;;;;6.63;4.30;;;31.50;99.90;;;;;;4990154;28;20510;-64
2022/09/07 12:34:31;;;;;;;7.95;5.68;;;31.30;99.90;;;;;;4988997;28;20398;-63
2022/09/07 12:37:02;;;;;;;7.72;5.10;;;31.20;99.90;;;;;;4990658;28;20466;-64
2022/09/07 12:39:29;;;;;;;6.85;4.30;;;30.70;99.90;;;;;;4989709;28;20402;-63
2022/09/07 12:42:07;;;;;;;9.30;5.80;;;31.00;99.90;;;;;;4990027;28;20410;-63
2022/09/07 12:44:34;;;;;;;9.38;5.80;;;31.20;99.90;;;;;;4990077;28;20406;-63
2022/09/07 12:47:21;;;;;;;9.90;5.20;;;31.50;99.90;;;;;;4990712;28;20474;-63
2022/09/07 12:49:57;;;;;;;9.32;5.70;;;31.80;99.90;;;;;;4966089;28;20877;-64
2022/09/07 12:53:07;;;;;;;8.35;5.72;;;31.80;99.90;;;;;;4976975;28;20394;-64
2022/09/07 12:55:54;;;;;;;10.63;6.65;;;31.50;99.90;;;;;;4989805;28;20402;-63
2022/09/07 12:58:38;;;;;;;8.15;5.85;;;31.40;99.90;;;;;;4980916;28;20408;-63
2022/09/07 13:01:30;;;;;;;8.20;6.30;;;31.20;99.90;;;;;;4978655;28;20420;-63
2022/09/07 13:04:05;;;;;;;8.50;6.15;;;31.30;99.90;;;;;;4962700;28;20430;-64
2022/09/07 13:06:57;;;;;;;9.70;6.25;;;31.30;99.90;;;;;;4975029;28;20412;-65
2022/09/07 13:09:37;;;;;;;8.80;5.63;;;31.50;99.90;;;;;;4986000;28;20397;-63
2022/09/07 13:12:30;;;;;;;9.25;6.15;;;30.80;99.90;;;;;;4989890;28;20392;-64
2022/09/07 13:14:57;;;;;;;6.93;5.57;;;31.00;99.90;;;;;;5006877;28;20388;-62
2022/09/07 13:17:30;;;;;;;7.93;5.70;;;31.10;99.90;;;;;;4993426;28;20740;-62
2022/09/07 13:19:56;;;;;;;8.20;6.07;;;31.40;99.90;;;;;;4968604;28;20559;-62
2022/09/07 13:22:34;;;;;;;7.00;5.60;;;31.60;99.90;;;;;;4972881;28;20924;-62
2022/09/07 13:25:22;;;;;;;8.80;6.50;;;31.70;99.90;;;;;;4970396;28;20416;-62